createdAt,value
2023-02-02T00:01:39.160Z,1028.3
2023-02-02T00:03:39.286Z,1028.3
2023-02-02T00:05:14.233Z,1028.2
2023-02-02T00:07:12.228Z,1028.2
2023-02-02T00:09:12.182Z,1028.3
2023-02-02T00:11:12.177Z,1028.2
2023-02-02T00:13:16.546Z,1028.1
2023-02-02T00:15:12.172Z,1028.1
2023-02-02T00:17:12.195Z,1028.2
2023-02-02T00:19:16.361Z,1028.1
2023-02-02T00:21:12.209Z,1028.1
2023-02-02T00:23:12.139Z,1028
2023-02-02T00:25:12.171Z,1028
2023-02-02T00:27:22.634Z,1028.1
2023-02-02T00:29:12.383Z,1028.1
2023-02-02T00:31:39.498Z,1028
2023-02-02T00:33:39.215Z,1027.9
2023-02-02T00:35:13.321Z,1028
2023-02-02T00:37:12.108Z,1028
2023-02-02T00:39:12.118Z,1027.8
2023-02-02T00:41:16.367Z,1027.7
2023-02-02T00:43:12.129Z,1027.8
2023-02-02T00:45:12.128Z,1027.7
2023-02-02T00:47:12.168Z,1027.8
2023-02-02T00:49:39.392Z,1027.8
2023-02-02T00:51:12.148Z,1027.7
2023-02-02T00:53:34.853Z,1027.7
2023-02-02T00:55:13.614Z,1027.7
2023-02-02T00:57:17.874Z,1027.7
2023-02-02T00:59:12.255Z,1027.6
2023-02-02T01:01:12.284Z,1027.6
2023-02-02T01:03:18.281Z,1027.7
2023-02-02T01:05:12.191Z,1027.8
2023-02-02T01:07:13.413Z,1027.8
2023-02-02T01:09:13.520Z,1027.8
2023-02-02T01:11:12.112Z,1027.7
2023-02-02T01:13:12.072Z,1027.7
2023-02-02T01:15:12.084Z,1027.8
2023-02-02T01:17:12.177Z,1027.9
2023-02-02T01:19:12.132Z,1027.8
2023-02-02T01:21:12.097Z,1027.8
2023-02-02T01:23:13.828Z,1028
2023-02-02T01:25:22.692Z,1028
2023-02-02T01:27:13.527Z,1027.8
2023-02-02T01:29:16.483Z,1028
2023-02-02T01:31:13.351Z,1028
2023-02-02T01:33:12.301Z,1028
2023-02-02T01:35:12.132Z,1028.1
2023-02-02T01:37:18.010Z,1028.1
2023-02-02T01:39:19.485Z,1028.1
2023-02-02T01:41:12.185Z,1028.1
2023-02-02T01:41:59.562Z,1028.1
2023-02-02T01:43:22.811Z,1028.1
2023-02-02T01:45:12.176Z,1028.1
2023-02-02T01:47:12.064Z,1028.2
2023-02-02T01:49:11.373Z,1028.2
2023-02-02T01:51:16.681Z,1028.4
2023-02-02T01:53:12.137Z,1028.4
2023-02-02T01:55:22.342Z,1028.4
2023-02-02T01:57:13.636Z,1028.4
2023-02-02T01:59:12.947Z,1028.3
2023-02-02T02:01:16.406Z,1028.2
2023-02-02T02:03:55.783Z,1028.2
2023-02-02T02:05:47.489Z,1028.3
2023-02-02T02:07:12.022Z,1028.2
2023-02-02T02:09:16.545Z,1028.2
2023-02-02T02:11:22.467Z,1028.2
2023-02-02T02:13:12.128Z,1028.3
2023-02-02T02:15:12.148Z,1028.3
2023-02-02T02:17:16.360Z,1028.3
2023-02-02T02:19:14.832Z,1028.3
2023-02-02T02:21:12.016Z,1028.4
2023-02-02T02:23:17.702Z,1028.5
2023-02-02T02:25:12.105Z,1028.4
2023-02-02T02:27:11.948Z,1028.3
2023-02-02T02:29:11.989Z,1028.3
2023-02-02T02:31:12.075Z,1028.4
2023-02-02T02:33:11.994Z,1028.3
2023-02-02T02:35:11.972Z,1028.2
2023-02-02T02:37:12.028Z,1028.2
2023-02-02T02:39:12.064Z,1028.1
2023-02-02T02:41:12.099Z,1028.1
2023-02-02T02:43:12.010Z,1028.3
2023-02-02T02:45:14.880Z,1028.4
2023-02-02T02:47:16.625Z,1028.4
2023-02-02T02:49:44.548Z,1028.5
2023-02-02T02:51:35.296Z,1028.5
2023-02-02T02:53:12.006Z,1028.5
2023-02-02T02:55:12.105Z,1028.5
2023-02-02T02:57:19.442Z,1028.5
2023-02-02T02:59:35.206Z,1028.5
2023-02-02T03:01:12.086Z,1028.4
2023-02-02T03:03:11.914Z,1028.5
2023-02-02T03:05:12.063Z,1028.4
2023-02-02T03:07:11.985Z,1028.3
2023-02-02T03:09:11.997Z,1028.3
2023-02-02T03:11:13.350Z,1028.3
2023-02-02T03:13:13.021Z,1028.3
2023-02-02T03:15:11.886Z,1028.4
2023-02-02T03:17:13.507Z,1028.4
2023-02-02T03:19:11.901Z,1028.4
2023-02-02T03:21:11.934Z,1028.4
2023-02-02T03:23:38.259Z,1028.3
2023-02-02T03:24:59.321Z,1028.3
2023-02-02T03:25:13.249Z,1028.3
2023-02-02T03:27:13.329Z,1028.2
2023-02-02T03:29:11.894Z,1028.3
2023-02-02T03:31:12.095Z,1028.3
2023-02-02T03:33:11.923Z,1028.4
2023-02-02T03:35:11.887Z,1028.5
2023-02-02T03:37:11.867Z,1028.5
2023-02-02T03:39:11.925Z,1028.4
2023-02-02T03:41:11.857Z,1028.4
2023-02-02T03:43:11.864Z,1028.3
2023-02-02T03:45:11.850Z,1028.3
2023-02-02T03:47:12.001Z,1028.3
2023-02-02T03:49:17.959Z,1028.2
2023-02-02T03:51:13.000Z,1028.3
2023-02-02T03:53:11.885Z,1028.4
2023-02-02T03:55:11.882Z,1028.4
2023-02-02T03:57:11.873Z,1028.4
2023-02-02T03:59:11.843Z,1028.3
2023-02-02T04:01:11.977Z,1028.2
2023-02-02T04:03:11.920Z,1028.2
2023-02-02T04:05:11.907Z,1028.2
2023-02-02T04:07:11.966Z,1028.1
2023-02-02T04:09:13.080Z,1028.1
2023-02-02T04:11:11.859Z,1028.1
2023-02-02T04:13:11.851Z,1028.2
2023-02-02T04:15:11.825Z,1028.2
2023-02-02T04:17:14.501Z,1028.2
2023-02-02T04:19:21.546Z,1028.1
2023-02-02T04:21:11.913Z,1028.1
2023-02-02T04:23:13.002Z,1028.1
2023-02-02T04:25:12.245Z,1028.2
2023-02-02T04:27:25.997Z,1028
2023-02-02T04:29:11.939Z,1027.8
2023-02-02T04:31:11.999Z,1027.8
2023-02-02T04:33:13.379Z,1027.9
2023-02-02T04:35:11.786Z,1028.1
2023-02-02T04:37:17.511Z,1028.4
2023-02-02T04:39:38.264Z,1028.3
2023-02-02T04:41:11.860Z,1028.2
2023-02-02T04:43:11.981Z,1027.9
2023-02-02T04:46:48.314Z,1027.7
2023-02-02T04:48:53.252Z,1027.7
2023-02-02T04:50:54.748Z,1027.6
2023-02-02T04:52:48.969Z,1027.7
2023-02-02T04:54:48.964Z,1027.7
2023-02-02T04:56:48.951Z,1027.7
2023-02-02T04:58:48.946Z,1027.7
2023-02-02T05:00:48.876Z,1027.6
2023-02-02T05:02:48.838Z,1027.6
2023-02-02T05:04:49.041Z,1027.7
2023-02-02T05:06:53.284Z,1027.8
2023-02-02T05:08:48.895Z,1027.9
2023-02-02T05:10:51.465Z,1027.9
2023-02-02T05:12:59.663Z,1027.9
2023-02-02T05:14:48.872Z,1028
2023-02-02T05:16:50.097Z,1027.9
2023-02-02T05:18:49.958Z,1028
2023-02-02T05:20:49.959Z,1028
2023-02-02T05:22:53.011Z,1027.9
2023-02-02T05:24:48.828Z,1027.8
2023-02-02T05:27:11.562Z,1027.8
2023-02-02T05:28:48.837Z,1027.7
2023-02-02T05:30:48.946Z,1027.7
2023-02-02T05:32:48.853Z,1027.6
2023-02-02T05:34:48.825Z,1027.6
2023-02-02T05:36:48.895Z,1027.6
2023-02-02T05:38:48.808Z,1027.4
2023-02-02T05:40:50.117Z,1027.3
2023-02-02T05:42:48.835Z,1027.3
2023-02-02T05:44:48.922Z,1027.2
2023-02-02T05:46:48.795Z,1027.1
2023-02-02T05:48:59.066Z,1027.2
2023-02-02T05:50:48.956Z,1027.2
2023-02-02T05:52:48.902Z,1027.2
2023-02-02T05:54:50.139Z,1027
2023-02-02T05:56:48.823Z,1026.9
2023-02-02T05:58:48.915Z,1027.1
2023-02-02T06:00:48.819Z,1027.2
2023-02-02T06:02:48.992Z,1027.2
2023-02-02T06:04:49.979Z,1027.3
2023-02-02T06:06:48.819Z,1027.3
2023-02-02T06:08:48.800Z,1027.3
2023-02-02T06:10:48.945Z,1027.1
2023-02-02T06:12:48.949Z,1027.1
2023-02-02T06:15:11.470Z,1027
2023-02-02T06:16:48.809Z,1026.9
2023-02-02T06:18:48.793Z,1027
2023-02-02T06:20:48.909Z,1027.1
2023-02-02T06:22:48.903Z,1027.2
2023-02-02T06:24:48.854Z,1027.2
2023-02-02T06:26:48.923Z,1027.1
2023-02-02T06:28:53.246Z,1027
2023-02-02T06:30:49.947Z,1026.9
2023-02-02T06:32:48.929Z,1026.9
2023-02-02T06:34:53.171Z,1026.8
2023-02-02T06:36:50.018Z,1026.8
2023-02-02T06:38:51.341Z,1026.8
2023-02-02T06:40:48.782Z,1026.8
2023-02-02T06:42:48.791Z,1026.8
2023-02-02T06:44:49.951Z,1026.7
2023-02-02T06:46:56.507Z,1026.7
2023-02-02T06:48:49.783Z,1026.7
2023-02-02T06:51:14.310Z,1026.8
2023-02-02T06:52:48.775Z,1026.9
2023-02-02T06:54:48.763Z,1027
2023-02-02T06:56:48.704Z,1026.9
2023-02-02T06:58:48.822Z,1026.9
2023-02-02T07:00:54.865Z,1027
2023-02-02T07:02:48.870Z,1027
2023-02-02T07:04:51.591Z,1027
2023-02-02T07:06:48.704Z,1027
2023-02-02T07:08:59.312Z,1026.9
2023-02-02T07:11:14.849Z,1026.8
2023-02-02T07:12:50.157Z,1026.8
2023-02-02T07:14:51.349Z,1026.8
2023-02-02T07:16:48.913Z,1026.9
2023-02-02T07:18:48.743Z,1026.9
2023-02-02T07:20:48.845Z,1026.9
2023-02-02T07:22:26.207Z,1026.9
2023-02-02T07:22:48.681Z,1027
2023-02-02T07:24:48.683Z,1026.9
2023-02-02T07:26:48.888Z,1026.8
2023-02-02T07:28:48.681Z,1026.7
2023-02-02T07:30:48.759Z,1026.6
2023-02-02T07:32:48.681Z,1026.6
2023-02-02T07:34:48.943Z,1026.5
2023-02-02T07:36:48.752Z,1026.6
2023-02-02T07:38:49.717Z,1026.7
2023-02-02T07:40:48.674Z,1026.6
2023-02-02T07:42:50.062Z,1026.6
2023-02-02T07:44:48.811Z,1026.5
2023-02-02T07:46:49.754Z,1026.5
2023-02-02T07:48:48.705Z,1026.5
2023-02-02T07:50:48.869Z,1026.6
2023-02-02T07:52:48.789Z,1026.7
2023-02-02T07:54:48.622Z,1026.8
2023-02-02T07:56:48.619Z,1026.8
2023-02-02T07:58:48.664Z,1026.8
2023-02-02T08:00:48.736Z,1026.8
2023-02-02T08:02:48.707Z,1026.8
2023-02-02T08:04:48.605Z,1026.8
2023-02-02T08:06:48.745Z,1026.6
2023-02-02T08:08:49.949Z,1026.4
2023-02-02T08:10:48.607Z,1026.6
2023-02-02T08:12:48.604Z,1026.6
2023-02-02T08:14:48.655Z,1026.5
2023-02-02T08:16:48.653Z,1026.4
2023-02-02T08:18:48.656Z,1026.4
2023-02-02T08:20:48.616Z,1026.5
2023-02-02T08:22:48.661Z,1026.5
2023-02-02T08:24:48.612Z,1026.5
2023-02-02T08:26:48.639Z,1026.6
2023-02-02T08:28:48.642Z,1026.6
2023-02-02T08:30:48.583Z,1026.4
2023-02-02T08:32:48.639Z,1026.6
2023-02-02T08:34:48.556Z,1026.6
2023-02-02T08:36:48.584Z,1026.7
2023-02-02T08:38:48.558Z,1026.7
2023-02-02T08:40:48.617Z,1026.8
2023-02-02T08:42:48.542Z,1026.8
2023-02-02T08:45:00.755Z,1026.9
2023-02-02T08:46:48.623Z,1026.9
2023-02-02T08:48:48.599Z,1026.7
2023-02-02T08:50:49.846Z,1026.7
2023-02-02T08:52:48.604Z,1026.7
2023-02-02T08:54:49.870Z,1026.8
2023-02-02T08:56:48.534Z,1026.7
2023-02-02T08:58:48.544Z,1026.6
2023-02-02T09:00:48.535Z,1026.4
2023-02-02T09:02:48.534Z,1026.4
2023-02-02T09:04:48.574Z,1026.6
2023-02-02T09:06:48.539Z,1026.5
2023-02-02T09:08:49.963Z,1026.5
2023-02-02T09:10:48.578Z,1026.5
2023-02-02T09:12:48.522Z,1026.5
2023-02-02T09:14:48.530Z,1026.3
2023-02-02T09:16:48.527Z,1026.3
2023-02-02T09:18:48.569Z,1026.4
2023-02-02T09:20:48.485Z,1026.4
2023-02-02T09:22:48.545Z,1026.2
2023-02-02T09:24:48.531Z,1026.2
2023-02-02T09:26:48.693Z,1026.4
2023-02-02T09:28:49.702Z,1026.4
2023-02-02T09:30:48.548Z,1026.4
2023-02-02T09:33:11.203Z,1026.3
2023-02-02T09:34:48.594Z,1026.2
2023-02-02T09:36:48.531Z,1026.2
2023-02-02T09:38:48.508Z,1026.2
2023-02-02T09:40:48.593Z,1026.3
2023-02-02T09:42:48.533Z,1026.3
2023-02-02T09:44:48.540Z,1026.3
2023-02-02T09:46:48.477Z,1026.1
2023-02-02T09:48:48.548Z,1026
2023-02-02T09:50:48.493Z,1025.8
2023-02-02T09:52:48.447Z,1026
2023-02-02T09:54:48.494Z,1026.1
2023-02-02T09:56:48.531Z,1026.1
2023-02-02T09:58:49.866Z,1026
2023-02-02T10:00:48.521Z,1026.1
2023-02-02T10:02:48.468Z,1026.1
2023-02-02T10:04:48.446Z,1026.1
2023-02-02T10:06:48.493Z,1026.1
2023-02-02T10:08:48.482Z,1026.1
2023-02-02T10:10:48.441Z,1026.2
2023-02-02T10:12:48.443Z,1026.3
2023-02-02T10:14:48.493Z,1026.1
2023-02-02T10:16:48.472Z,1025.9
2023-02-02T10:18:48.493Z,1026
2023-02-02T10:20:48.571Z,1026.1
2023-02-02T10:22:48.428Z,1026.2
2023-02-02T10:24:48.412Z,1026.3
2023-02-02T10:26:48.473Z,1026.3
2023-02-02T10:28:48.491Z,1026.3
2023-02-02T10:30:48.597Z,1026.3
2023-02-02T10:32:48.463Z,1026.2
2023-02-02T10:34:48.423Z,1026
2023-02-02T10:36:48.429Z,1026
2023-02-02T10:38:48.434Z,1026
2023-02-02T10:40:48.402Z,1026
2023-02-02T10:42:48.420Z,1026
2023-02-02T10:44:48.491Z,1026
2023-02-02T10:46:48.393Z,1025.8
2023-02-02T10:48:48.421Z,1025.7
2023-02-02T10:50:49.701Z,1025.6
2023-02-02T10:52:48.385Z,1025.2
2023-02-02T10:54:56.245Z,1024.9
2023-02-02T10:56:49.534Z,1025
2023-02-02T10:58:48.417Z,1025.2
2023-02-02T11:00:48.493Z,1025.5
2023-02-02T11:02:49.681Z,1025.4
2023-02-02T11:04:48.436Z,1025.5
2023-02-02T11:06:48.356Z,1025.7
2023-02-02T11:08:48.366Z,1025.9
2023-02-02T11:10:48.728Z,1025.9
2023-02-02T11:12:48.369Z,1025.9
2023-02-02T11:14:48.351Z,1026.1
2023-02-02T11:16:48.537Z,1026.2
2023-02-02T11:18:48.420Z,1026.2
2023-02-02T11:20:48.335Z,1026.3
2023-02-02T11:22:48.347Z,1026.3
2023-02-02T11:24:48.369Z,1026.3
2023-02-02T11:26:48.378Z,1026.4
2023-02-02T11:28:48.482Z,1026.6
2023-02-02T11:30:48.445Z,1026.5
2023-02-02T11:32:48.366Z,1026.6
2023-02-02T11:34:48.441Z,1026.8
2023-02-02T11:36:48.373Z,1027
2023-02-02T11:38:49.727Z,1027.1
2023-02-02T11:40:48.319Z,1027.1
2023-02-02T11:42:48.330Z,1027.2
2023-02-02T11:44:48.345Z,1027.4
2023-02-02T11:46:48.357Z,1027.3
2023-02-02T11:48:48.536Z,1027.3
2023-02-02T11:50:56.149Z,1027.3
2023-02-02T11:52:48.384Z,1027.5
2023-02-02T11:54:54.274Z,1027.7
2023-02-02T11:56:48.360Z,1027.6
2023-02-02T11:58:52.612Z,1027.9
2023-02-02T12:00:48.460Z,1027.9
2023-02-02T12:03:15.305Z,1027.7
2023-02-02T12:04:49.860Z,1027.6
2023-02-02T12:06:51.121Z,1027.2
2023-02-02T12:08:48.388Z,1027
2023-02-02T12:11:17.718Z,1027
2023-02-02T12:12:48.445Z,1027.2
2023-02-02T12:14:51.180Z,1027.2
2023-02-02T12:16:52.751Z,1027
2023-02-02T12:18:51.431Z,1027.1
2023-02-02T12:20:58.685Z,1027.1
2023-02-02T12:22:50.894Z,1027
2023-02-02T12:24:56.105Z,1027
2023-02-02T12:26:01.651Z,1027
2023-02-02T12:26:53.195Z,1026.8
2023-02-02T12:27:57.430Z,1026.8
2023-02-02T12:28:25.934Z,1026.7
2023-02-02T12:30:34.346Z,1026.7
2023-02-02T12:32:03.319Z,1026.6
2023-02-02T12:34:09.061Z,1026.6
2023-02-02T12:36:28.554Z,1026.5
2023-02-02T12:38:07.562Z,1026.6
2023-02-02T12:40:27.650Z,1026.6
2023-02-02T12:40:44.090Z,1026.6
2023-02-02T12:42:05.886Z,1026.5
2023-02-02T12:44:03.372Z,1026.6
2023-02-02T12:46:12.412Z,1026.5
2023-02-02T12:48:13.509Z,1026.5
2023-02-02T12:50:04.484Z,1026.3
2023-02-02T12:52:28.256Z,1026.3
2023-02-02T12:54:32.366Z,1026.1
2023-02-02T12:56:03.298Z,1026
2023-02-02T12:58:03.379Z,1026
2023-02-02T13:00:03.350Z,1026
2023-02-02T13:02:04.634Z,1025.9
2023-02-02T13:04:07.897Z,1025.9
2023-02-02T13:06:04.365Z,1025.8
2023-02-02T13:08:03.096Z,1025.8
2023-02-02T13:10:03.149Z,1025.7
2023-02-02T13:12:03.234Z,1025.8
2023-02-02T13:14:07.624Z,1025.7
2023-02-02T13:16:09.193Z,1025.8
2023-02-02T13:18:15.011Z,1025.9
2023-02-02T13:20:08.983Z,1025.9
2023-02-02T13:22:03.216Z,1025.9
2023-02-02T13:24:05.063Z,1025.9
2023-02-02T13:26:27.455Z,1025.7
2023-02-02T13:28:03.307Z,1025.8
2023-02-02T13:30:04.237Z,1025.7
2023-02-02T13:32:03.097Z,1025.7
2023-02-02T13:34:28.216Z,1025.7
2023-02-02T13:36:38.649Z,1025.7
2023-02-02T13:38:30.690Z,1025.7
2023-02-02T13:40:03.114Z,1025.6
2023-02-02T13:42:07.400Z,1025.5
2023-02-02T13:44:07.321Z,1025.5
2023-02-02T13:46:03.141Z,1025.5
2023-02-02T13:48:28.335Z,1025.6
2023-02-02T13:50:07.705Z,1025.7
2023-02-02T13:52:28.345Z,1025.8
2023-02-02T13:54:43.151Z,1025.8
2023-02-02T13:57:30.273Z,1025.8
2023-02-02T13:58:15.770Z,1025.7
2023-02-02T14:02:14.852Z,1025.7
2023-02-02T14:03:09.432Z,1025.7
2023-02-02T14:03:39.143Z,1025.6
2023-02-02T14:05:40.412Z,1025.7
2023-02-02T14:09:55.442Z,1025.9
2023-02-02T14:10:15.894Z,1025.9
2023-02-02T14:12:46.219Z,1025.7
2023-02-02T14:14:17.484Z,1025.8
2023-02-02T14:16:12.709Z,1026
2023-02-02T14:18:11.476Z,1026
2023-02-02T14:20:21.886Z,1025.9
2023-02-02T14:20:49.389Z,1025.9
2023-02-02T14:22:43.199Z,1026.1
2023-02-02T14:24:47.818Z,1026.2
2023-02-02T14:26:11.682Z,1026.3
2023-02-02T14:28:12.502Z,1026.3
2023-02-02T14:30:15.966Z,1026.2
2023-02-02T14:32:15.911Z,1026.2
2023-02-02T14:34:40.296Z,1026.1
2023-02-02T14:36:17.772Z,1026.2
2023-02-02T14:38:15.898Z,1026.6
2023-02-02T14:40:12.568Z,1026.7
2023-02-02T14:42:11.404Z,1026.2
2023-02-02T14:44:33.894Z,1026.1
2023-02-02T14:46:37.540Z,1025.9
2023-02-02T14:48:11.484Z,1025.8
2023-02-02T14:50:55.201Z,1025.9
2023-02-02T14:52:11.418Z,1025.9
2023-02-02T14:54:12.572Z,1025.9
2023-02-02T14:56:11.360Z,1025.9
2023-02-02T14:58:11.428Z,1026
2023-02-02T15:00:11.628Z,1026.1
2023-02-02T15:02:11.391Z,1026.2
2023-02-02T15:04:11.302Z,1026.2
2023-02-02T15:06:33.962Z,1026.2
2023-02-02T15:08:47.499Z,1026.2
2023-02-02T15:10:35.378Z,1026.2
2023-02-02T15:12:38.532Z,1026.3
2023-02-02T15:14:11.424Z,1026.2
2023-02-02T15:16:35.186Z,1026.2
2023-02-02T15:18:15.843Z,1026.2
2023-02-02T15:20:11.348Z,1026.3
2023-02-02T15:22:11.528Z,1026.5
2023-02-02T15:22:56.677Z,1026.5
2023-02-02T15:24:11.508Z,1026.5
2023-02-02T15:26:34.187Z,1026.7
2023-02-02T15:28:11.423Z,1026.6
2023-02-02T15:30:21.674Z,1026.4
2023-02-02T15:32:34.263Z,1026
2023-02-02T15:34:11.376Z,1026
2023-02-02T15:36:21.932Z,1026
2023-02-02T15:38:23.356Z,1025.9
2023-02-02T15:40:36.205Z,1025.8
2023-02-02T15:42:25.539Z,1025.9
2023-02-02T15:44:12.545Z,1026
2023-02-02T15:46:34.135Z,1026
2023-02-02T15:48:48.478Z,1026
2023-02-02T15:50:11.428Z,1026
2023-02-02T15:52:15.447Z,1026
2023-02-02T15:54:11.437Z,1026
2023-02-02T15:56:11.359Z,1026
2023-02-02T15:58:11.347Z,1026
2023-02-02T16:00:25.562Z,1025.9
2023-02-02T16:02:12.150Z,1025.8
2023-02-02T16:04:13.990Z,1025.8
2023-02-02T16:06:12.692Z,1025.9
2023-02-02T16:08:21.800Z,1025.8
2023-02-02T16:10:13.475Z,1025.7
2023-02-02T16:12:11.501Z,1025.6
2023-02-02T16:14:12.687Z,1025.5
2023-02-02T16:16:12.767Z,1025.4
2023-02-02T16:18:11.376Z,1025.3
2023-02-02T16:18:49.164Z,1025.3
2023-02-02T16:20:12.638Z,1025.3
2023-02-02T16:22:11.410Z,1025.3
2023-02-02T16:23:04.686Z,1025.3
2023-02-02T16:24:17.302Z,1025.3
2023-02-02T16:26:15.171Z,1025.4
2023-02-02T16:27:40.079Z,1025.4
2023-02-02T16:28:11.240Z,1025.4
2023-02-02T16:30:11.292Z,1025.4
2023-02-02T16:32:53.893Z,1025.3
2023-02-02T16:34:08.340Z,1025.3
2023-02-02T16:34:54.862Z,1025.2
2023-02-02T16:36:12.814Z,1025.2
2023-02-02T16:53:29.013Z,1025.1
2023-02-02T16:55:47.721Z,1025
2023-02-02T16:56:06.142Z,1024.9
2023-02-02T16:58:06.116Z,1024.9
2023-02-02T17:00:06.232Z,1024.9
2023-02-02T17:02:08.865Z,1024.9
2023-02-02T17:04:07.466Z,1024.8
2023-02-02T17:06:06.213Z,1024.7
2023-02-02T17:08:33.560Z,1024.5
2023-02-02T17:10:29.271Z,1024.4
2023-02-02T17:12:06.324Z,1024.3
2023-02-02T17:14:12.325Z,1024.5
2023-02-02T17:15:27.726Z,1024.5
2023-02-02T17:16:20.246Z,1024.6
2023-02-02T17:18:06.294Z,1024.6
2023-02-02T17:20:06.188Z,1024.5
2023-02-02T17:22:08.100Z,1024.4
2023-02-02T17:24:10.520Z,1024.2
2023-02-02T17:26:07.401Z,1024.1
2023-02-02T17:28:29.332Z,1024.2
2023-02-02T17:30:07.411Z,1024.3
2023-02-02T17:32:06.271Z,1024.3
2023-02-02T17:34:06.124Z,1024
2023-02-02T17:36:06.143Z,1023.6
2023-02-02T17:38:07.356Z,1023.6
2023-02-02T17:40:06.328Z,1023.6
2023-02-02T17:42:06.235Z,1023.7
2023-02-02T17:44:06.170Z,1023.6
2023-02-02T17:46:06.191Z,1023.7
2023-02-02T17:48:06.147Z,1023.7
2023-02-02T17:49:59.435Z,1023.7
2023-02-02T17:52:06.335Z,1023.4
2023-02-02T17:54:06.084Z,1023.2
2023-02-02T17:56:06.092Z,1023.2
2023-02-02T17:58:07.454Z,1023.3
2023-02-02T17:58:36.986Z,1023.3
2023-02-02T18:00:11.876Z,1023.3
2023-02-02T18:02:18.309Z,1023.1
2023-02-02T18:02:42.809Z,1023.1
2023-02-02T18:04:30.342Z,1022.8
2023-02-02T18:06:10.215Z,1022.7
2023-02-02T18:08:16.590Z,1022.8
2023-02-02T18:08:55.932Z,1022.8
2023-02-02T18:10:07.674Z,1022.9
2023-02-02T18:12:01.391Z,1022.8
2023-02-02T18:12:59.438Z,1022.7
2023-02-02T18:15:35.393Z,1022.5
2023-02-02T18:17:43.997Z,1022.6
2023-02-02T18:19:35.660Z,1022.5
2023-02-02T18:21:43.377Z,1022.3
2023-02-02T18:23:36.743Z,1022.3
2023-02-02T18:25:35.449Z,1022.3
2023-02-02T18:27:57.437Z,1022.3
2023-02-02T18:29:34.573Z,1022.1
2023-02-02T18:31:33.736Z,1021.9
2023-02-02T18:33:37.932Z,1022
2023-02-02T18:35:38.726Z,1022.1
2023-02-02T18:37:56.623Z,1022.2
2023-02-02T18:39:33.607Z,1022.2
2023-02-02T18:41:38.012Z,1022.2
2023-02-02T18:43:34.723Z,1022.3
2023-02-02T18:44:35.447Z,1022.3
2023-02-02T18:45:38.004Z,1022.4
2023-02-02T18:47:33.602Z,1022.2
2023-02-02T18:49:59.442Z,1021.8
2023-02-02T18:50:59.788Z,1021.8
2023-02-02T18:51:43.989Z,1021.3
2023-02-02T18:53:34.910Z,1021.6
2023-02-02T18:55:44.007Z,1021.9
2023-02-02T18:57:36.084Z,1022
2023-02-02T18:59:11.607Z,1021.9
2023-02-02T19:00:28.575Z,1021.6
2023-02-02T19:03:12.942Z,1021.2
2023-02-02T19:04:04.804Z,1021.3
2023-02-02T19:08:29.220Z,1021.1
2023-02-02T19:09:02.040Z,1021.1
2023-02-02T19:11:22.940Z,1021.2
2023-02-02T19:12:41.102Z,1021.2
2023-02-02T19:13:05.340Z,1021.2
2023-02-02T19:15:02.962Z,1021.2
2023-02-02T19:16:59.718Z,1021.3
2023-02-02T19:34:19.002Z,1021
2023-02-02T19:34:52.477Z,1021
2023-02-02T19:35:25.519Z,1021
2023-02-02T19:36:17.175Z,1021.2
2023-02-02T19:38:21.781Z,1021.2
2023-02-02T19:40:15.822Z,1021
2023-02-02T19:42:30.133Z,1020.8
2023-02-02T19:43:00.954Z,1020.8
2023-02-02T19:44:15.968Z,1020.7
2023-02-02T19:46:17.227Z,1020.7
2023-02-02T19:48:41.464Z,1020.7
2023-02-02T19:50:20.076Z,1020.8
2023-02-02T19:52:44.437Z,1021
2023-02-02T19:54:20.259Z,1021
2023-02-02T19:56:16.743Z,1020.9
2023-02-02T19:58:15.875Z,1020.8
2023-02-02T20:00:16.789Z,1021.1
2023-02-02T20:02:15.746Z,1021.1
2023-02-02T20:04:38.446Z,1021
2023-02-02T20:06:15.751Z,1020.8
2023-02-02T20:08:18.333Z,1020.8
2023-02-02T20:10:18.346Z,1020.8
2023-02-02T20:12:30.753Z,1020.9
2023-02-02T20:14:18.570Z,1021
2023-02-02T20:16:15.937Z,1020.9
2023-02-02T20:18:47.385Z,1020.9
2023-02-02T20:20:15.749Z,1020.9
2023-02-02T20:22:17.300Z,1020.7
2023-02-02T20:24:20.274Z,1020.4
2023-02-02T20:26:17.105Z,1020.2
2023-02-02T20:28:32.237Z,1020.2
2023-02-02T20:30:20.039Z,1020.2
2023-02-02T20:32:26.187Z,1020.2
2023-02-02T20:34:15.781Z,1020.2
2023-02-02T20:36:17.851Z,1020.6
2023-02-02T20:38:17.255Z,1020.6
2023-02-02T20:40:15.834Z,1020.4
2023-02-02T20:42:15.746Z,1020.7
2023-02-02T20:44:15.687Z,1020.9
2023-02-02T20:46:26.205Z,1021
2023-02-02T20:48:26.083Z,1020.6
2023-02-02T20:50:17.094Z,1020.4
2023-02-02T20:52:15.608Z,1020.3
2023-02-02T20:54:16.843Z,1020.4
2023-02-02T20:55:11.251Z,1020.4
2023-02-02T20:56:27.615Z,1020.4
2023-02-02T20:58:15.798Z,1020.5
2023-02-02T21:00:15.627Z,1020.6
2023-02-02T21:02:44.285Z,1020.7
2023-02-02T21:04:16.944Z,1020.8
2023-02-02T21:06:38.395Z,1021
2023-02-02T21:08:15.832Z,1021
2023-02-02T21:10:20.368Z,1020.9
2023-02-02T21:12:16.784Z,1020.7
2023-02-02T21:14:27.502Z,1020.5
2023-02-02T21:16:17.071Z,1020.7
2023-02-02T21:18:15.711Z,1020.8
2023-02-02T21:20:15.700Z,1021
2023-02-02T21:22:16.955Z,1021.1
2023-02-02T21:24:15.909Z,1021.1
2023-02-02T21:25:41.475Z,1021.1
2023-02-02T21:26:15.645Z,1021.1
2023-02-02T21:28:15.841Z,1021.2
2023-02-02T21:30:18.207Z,1021.2
2023-02-02T21:32:16.874Z,1021.1
2023-02-02T21:34:43.488Z,1021.2
2023-02-02T21:37:43.590Z,1021.2
2023-02-02T21:37:44.467Z,1021.2
2023-02-02T21:39:45.680Z,1021.2
2023-02-02T21:41:08.089Z,1021.2
2023-02-02T21:42:14.088Z,1021
2023-02-02T21:44:07.209Z,1020.8
2023-02-02T21:44:30.949Z,1020.8
2023-02-02T21:46:25.916Z,1020.5
2023-02-02T21:47:56.256Z,1020.2
2023-02-02T21:49:47.420Z,1020.2
2023-02-02T21:50:32.098Z,1019.9
2023-02-02T21:51:56.347Z,1019.8
2023-02-02T21:53:57.209Z,1019.7
2023-02-02T21:55:57.552Z,1019.6
2023-02-02T21:57:58.257Z,1019.6
2023-02-02T22:00:01.997Z,1019.8
2023-02-02T22:01:58.026Z,1019.9
2023-02-02T22:03:57.416Z,1019.9
2023-02-02T22:06:02.301Z,1019.7
2023-02-02T22:07:56.060Z,1019.7
2023-02-02T22:09:56.171Z,1019.7
2023-02-02T22:10:44.009Z,1019.7
2023-02-02T22:11:56.104Z,1019.7
2023-02-02T22:13:56.163Z,1019.7
2023-02-02T22:15:57.231Z,1019.8
2023-02-02T22:17:56.304Z,1019.9
2023-02-02T22:19:56.196Z,1019.8
2023-02-02T22:21:21.418Z,1019.8
2023-02-02T22:22:02.015Z,1019.8
2023-02-02T22:23:57.469Z,1019.8
2023-02-02T22:26:23.556Z,1019.8
2023-02-02T22:27:57.161Z,1019.8
2023-02-02T22:29:58.793Z,1019.7
2023-02-02T22:32:00.713Z,1019.6
2023-02-02T22:34:25.402Z,1019.4
2023-02-02T22:34:58.012Z,1019.4
2023-02-02T22:35:18.123Z,1019.5
2023-02-02T22:37:21.346Z,1019.4
2023-02-02T22:39:17.867Z,1019.5
2023-02-02T22:41:17.755Z,1019.5
2023-02-02T22:43:19.508Z,1019.6
2023-02-02T22:45:17.734Z,1019.8
2023-02-02T22:47:18.086Z,1019.7
2023-02-02T22:49:30.082Z,1019.7
2023-02-02T22:51:24.182Z,1019.6
2023-02-02T22:53:22.024Z,1019.7
2023-02-02T22:55:39.565Z,1019.7
2023-02-02T22:57:21.946Z,1019.7
2023-02-02T22:59:18.964Z,1019.7
2023-02-02T23:01:18.147Z,1019.7
2023-02-02T23:03:20.218Z,1019.7
2023-02-02T23:05:17.679Z,1019.6
2023-02-02T23:07:17.559Z,1019.7
2023-02-02T23:09:17.992Z,1019.8
2023-02-02T23:11:17.593Z,1019.8
2023-02-02T23:13:17.549Z,1019.8
2023-02-02T23:15:21.833Z,1019.7
2023-02-02T23:17:18.913Z,1019.8
2023-02-02T23:19:20.274Z,1019.7
2023-02-02T23:21:23.409Z,1019.8
2023-02-02T23:23:17.735Z,1019.8
2023-02-02T23:25:18.056Z,1019.9
2023-02-02T23:27:17.549Z,1019.9
2023-02-02T23:28:39.274Z,1019.9
2023-02-02T23:29:17.595Z,1019.9
2023-02-02T23:31:17.689Z,1020
2023-02-02T23:33:17.753Z,1020.1
2023-02-02T23:35:18.024Z,1020
2023-02-02T23:37:17.529Z,1020.1
2023-02-02T23:39:18.787Z,1020.1
2023-02-02T23:41:17.580Z,1020
2023-02-02T23:43:17.565Z,1020
2023-02-02T23:45:17.553Z,1020
2023-02-02T23:47:17.521Z,1020.1
2023-02-02T23:49:17.513Z,1020.2
2023-02-02T23:51:20.052Z,1020.2
2023-02-02T23:53:17.562Z,1020.2
2023-02-02T23:55:17.566Z,1020
2023-02-02T23:57:19.979Z,1019.9
2023-02-02T23:59:17.595Z,1019.8
